This is the latest recevied weather packets stored in our database for station/object SP3SWJ-13. If no packets are shown the sender has not sent any weather packets the latest 10 day(s).
| Time | Temp. | Humidity | Pressure | Rain* | Wind** | Luminosity | Snow |
|---|---|---|---|---|---|---|---|
| 1777566237 | 15.56° C | 43% | 1018.5 hPa | - | - | 35 W/m² | - |
| 1777565936 | 15.56° C | 42% | 1018.6 hPa | - | - | 39 W/m² | - |
| 1777565635 | 16.11° C | 42% | 1018.7 hPa | - | - | 47 W/m² | - |
| 1777565334 | 16.11° C | 42% | 1018.7 hPa | - | - | 41 W/m² | - |
| 1777565033 | 16.11° C | 42% | 1018.7 hPa | - | - | 41 W/m² | - |
| 1777564732 | 16.11° C | 41% | 1018.7 hPa | - | - | 55 W/m² | - |
| 1777564431 | 16.11° C | 41% | 1018.8 hPa | - | - | 71 W/m² | - |
| 1777564131 | 16.67° C | 40% | 1018.8 hPa | - | - | 73 W/m² | - |
| 1777563830 | 16.67° C | 39% | 1018.8 hPa | - | - | 83 W/m² | - |
| 1777563529 | 16.67° C | 39% | 1018.8 hPa | - | - | 106 W/m² | - |
| 1777563228 | 17.22° C | 36% | 1018.9 hPa | - | - | 134 W/m² | - |
| 1777562927 | 16.67° C | 37% | 1018.9 hPa | - | - | 290 W/m² | - |
| 1777562626 | 16.67° C | 38% | 1018.9 hPa | - | - | 198 W/m² | - |
| 1777562326 | 16.11° C | 38% | 1019 hPa | - | - | 154 W/m² | - |
| 1777561723 | 15.56° C | 39% | 1019.1 hPa | - | - | 242 W/m² | - |
| 1777561423 | 15.56° C | 41% | 1019.2 hPa | - | - | 125 W/m² | - |
| 1777561122 | 16.11° C | 39% | 1019.2 hPa | - | - | 127 W/m² | - |
| 1777560821 | 15.56° C | 40% | 1019.2 hPa | - | - | 109 W/m² | - |
| 1777560520 | 15.56° C | 40% | 1019.2 hPa | - | - | 145 W/m² | - |
| 1777560219 | 15.56° C | 39% | 1019.3 hPa | - | - | 124 W/m² | - |
| 1777559918 | 15° C | 39% | 1019.4 hPa | - | - | 120 W/m² | - |
| 1777559617 | 15.56° C | 39% | 1019.4 hPa | - | - | 116 W/m² | - |
| 1777559317 | 15.56° C | 39% | 1019.4 hPa | - | - | 104 W/m² | - |
| 1777559016 | 15° C | 39% | 1019.5 hPa | - | - | 91 W/m² | - |
| 1777558715 | 15.56° C | 39% | 1019.5 hPa | - | - | 113 W/m² | - |
* Rain since midnight (hover to see other rain measurements)
** Current wind speed in m/s (hover to see current wind gust speed)